Time;durP1;ratioP1;P1;durP2;ratioP2;P2;SDS_P1;SDS_P2;PMS_P1;PMS_P2;Temp;Humidity;BMP_temperature;BMP_pressure;BME280_temperature;BME280_humidity;BME280_pressure;Samples;Min_cycle;Max_cycle;Signal;HPM_P1;HPM_P2
2023/12/12 00:00:58;;;;;;;3.58;2.55;;;;;;;0.55;100.00;100733.53;5023019;28;20037;-78
2023/12/12 00:03:24;;;;;;;3.58;2.60;;;;;;;0.57;100.00;100742.19;5060505;28;20399;-79
2023/12/12 00:05:49;;;;;;;4.80;2.92;;;;;;;0.54;100.00;100731.84;5063259;28;20091;-79
2023/12/12 00:08:14;;;;;;;3.40;2.50;;;;;;;0.46;100.00;100725.44;5064975;28;20025;-79
2023/12/12 00:10:40;;;;;;;3.22;2.38;;;;;;;0.46;100.00;100727.22;5065424;28;20029;-82
2023/12/12 00:13:06;;;;;;;3.53;2.90;;;;;;;0.53;100.00;100736.31;5029969;28;20021;-73
2023/12/12 00:15:31;;;;;;;2.97;2.50;;;;;;;0.45;100.00;100728.19;5029541;28;20021;-79
2023/12/12 00:17:56;;;;;;;3.53;2.63;;;;;;;0.50;100.00;100749.81;5038435;28;20060;-75
2023/12/12 00:20:22;;;;;;;3.38;2.80;;;;;;;0.40;100.00;100739.22;5055667;28;20029;-76
2023/12/12 00:22:47;;;;;;;4.07;2.88;;;;;;;0.46;100.00;100735.16;5039426;28;20028;-77
2023/12/12 00:25:13;;;;;;;4.35;2.85;;;;;;;0.51;100.00;100740.91;5062689;28;20065;-75
2023/12/12 00:27:38;;;;;;;3.47;2.80;;;;;;;0.41;100.00;100740.88;5060860;28;20037;-74
2023/12/12 00:30:04;;;;;;;3.45;2.95;;;;;;;0.40;100.00;100759.56;5061179;28;20025;-77
2023/12/12 00:32:29;;;;;;;3.38;2.90;;;;;;;0.39;100.00;100756.03;5060565;28;20025;-73
2023/12/12 00:34:55;;;;;;;3.47;3.00;;;;;;;0.38;100.00;100764.13;5042876;28;20092;-76
2023/12/12 00:37:20;;;;;;;4.70;3.47;;;;;;;0.29;100.00;100754.34;5042408;28;20510;-78
2023/12/12 00:39:46;;;;;;;5.72;3.30;;;;;;;0.33;100.00;100772.47;5069458;28;20064;-83
2023/12/12 00:42:11;;;;;;;3.53;3.03;;;;;;;0.31;100.00;100774.41;5061852;28;20040;-82
2023/12/12 00:44:36;;;;;;;5.05;3.70;;;;;;;0.29;100.00;100778.16;5062124;28;20101;-79
2023/12/12 00:47:02;;;;;;;3.88;3.30;;;;;;;0.30;100.00;100783.34;5061840;28;20040;-81
2023/12/12 00:49:28;;;;;;;4.55;3.30;;;;;;;0.10;100.00;100760.38;5079814;28;20031;-79
2023/12/12 00:51:54;;;;;;;3.83;3.35;;;;;;;0.27;100.00;100796.00;5062749;28;20506;-77
2023/12/12 00:54:19;;;;;;;4.57;3.35;;;;;;;0.22;100.00;100788.44;5062081;28;20063;-82
2023/12/12 00:56:47;;;;;;;3.83;2.92;;;;;;;0.22;100.00;100786.63;5045555;28;20052;-81
2023/12/12 00:59:13;;;;;;;3.03;2.50;;;;;;;0.27;100.00;100785.41;5045297;28;20024;-80
2023/12/12 01:01:38;;;;;;;3.30;3.00;;;;;;;0.27;100.00;100788.06;5060675;28;20062;-74
2023/12/12 01:04:04;;;;;;;4.05;3.17;;;;;;;0.27;100.00;100790.69;5077818;28;20032;-73
2023/12/12 01:06:30;;;;;;;3.95;3.13;;;;;;;0.28;100.00;100790.56;5078797;28;20499;-81
2023/12/12 01:08:55;;;;;;;4.65;3.10;;;;;;;0.10;100.00;100778.91;5044633;28;20383;-82
2023/12/12 01:11:21;;;;;;;3.47;3.17;;;;;;;0.22;100.00;100788.44;5060900;28;20041;-78
2023/12/12 01:13:46;;;;;;;4.53;3.40;;;;;;;0.29;100.00;100792.22;5060838;28;20028;-73
2023/12/12 01:16:12;;;;;;;4.25;3.25;;;;;;;0.28;100.00;100793.19;5079260;28;20036;-78
2023/12/12 01:18:37;;;;;;;4.13;3.22;;;;;;;0.31;100.00;100800.88;5060861;28;20020;-79
2023/12/12 01:21:03;;;;;;;4.13;3.17;;;;;;;0.12;100.00;100775.16;5044388;28;20394;-81
2023/12/12 01:23:51;;;;;;;4.18;3.20;;;;;;;0.25;100.00;100805.88;5059966;28;20050;-75
2023/12/12 01:26:20;;;;;;;4.43;3.53;;;;;;;0.11;100.00;100785.88;5043104;28;20079;-71
2023/12/12 01:28:46;;;;;;;3.38;2.78;;;;;;;0.22;100.00;100797.19;5058167;28;20111;-77
2023/12/12 01:31:12;;;;;;;4.25;3.33;;;;;;;0.16;100.00;100797.72;5078640;28;20083;-77
2023/12/12 01:33:37;;;;;;;4.30;3.10;;;;;;;0.24;100.00;100799.72;5061321;28;20482;-72
2023/12/12 01:36:04;;;;;;;3.42;2.90;;;;;;;0.20;100.00;100807.09;5061884;28;20028;-81
2023/12/12 01:38:31;;;;;;;3.50;3.00;;;;;;;0.22;100.00;100809.59;5060898;28;20090;-74
2023/12/12 01:40:57;;;;;;;3.80;2.67;;;;;;;0.08;100.00;100792.28;5028203;28;20114;-77
2023/12/12 01:43:27;;;;;;;3.67;2.97;;;;;;;0.22;100.00;100807.78;5078513;28;20029;-75
2023/12/12 01:45:58;;;;;;;3.65;2.80;;;;;;;0.18;100.00;100794.97;5060311;28;20036;-83
2023/12/12 01:48:24;;;;;;;3.30;2.67;;;;;;;0.13;100.00;100798.03;5079039;28;20439;-80
2023/12/12 01:50:51;;;;;;;3.35;2.83;;;;;;;0.03;100.00;100775.94;5044751;28;20431;-79
2023/12/12 01:53:37;;;;;;;3.92;2.83;;;;;;;0.19;100.00;100791.34;5060551;28;20028;-78
2023/12/12 01:56:04;;;;;;;3.88;2.90;;;;;;;0.16;100.00;100804.84;5060709;28;20085;-73
2023/12/12 01:58:33;;;;;;;3.10;2.80;;;;;;;0.15;100.00;100805.81;5061004;28;20024;-79
2023/12/12 02:00:59;;;;;;;4.05;2.67;;;;;;;0.05;100.00;100783.75;5078644;28;20075;-80
2023/12/12 02:03:25;;;;;;;3.72;2.88;;;;;;;0.15;100.00;100801.34;5060978;28;20024;-82
2023/12/12 02:05:52;;;;;;;3.55;2.63;;;;;;;0.05;100.00;100791.69;5060630;28;20407;-79
2023/12/12 02:08:18;;;;;;;3.60;2.70;;;;;;;0.12;100.00;100803.44;5060937;28;20067;-83
2023/12/12 02:10:43;;;;;;;4.22;3.10;;;;;;;0.11;100.00;100805.25;5078323;28;20051;-82
2023/12/12 02:13:10;;;;;;;3.72;2.80;;;;;;;0.09;100.00;100801.03;5078327;28;20656;-79
2023/12/12 02:15:35;;;;;;;4.57;3.38;;;;;;;0.00;100.00;100789.47;5060384;28;20081;-82
2023/12/12 02:18:01;;;;;;;3.55;2.80;;;;;;;-0.11;100.00;100776.28;5060606;28;20112;-80
2023/12/12 02:20:26;;;;;;;4.85;2.95;;;;;;;-0.02;100.00;100797.50;5043344;28;20036;-76
2023/12/12 02:22:51;;;;;;;3.88;2.60;;;;;;;0.07;100.00;100797.72;5043412;28;20021;-74
2023/12/12 02:25:17;;;;;;;4.32;3.03;;;;;;;0.02;100.00;100802.53;5077636;28;20043;-80
2023/12/12 02:27:43;;;;;;;3.35;2.80;;;;;;;0.06;100.00;100801.31;5043728;28;20046;-78
2023/12/12 02:30:11;;;;;;;4.18;3.03;;;;;;;0.09;100.00;100807.16;5059556;28;20032;-76
2023/12/12 02:32:37;;;;;;;3.35;2.58;;;;;;;0.07;100.00;100803.84;5059864;28;20028;-79
2023/12/12 02:35:02;;;;;;;4.43;2.90;;;;;;;0.03;100.00;100809.50;5077727;28;20048;-79
2023/12/12 02:37:28;;;;;;;4.18;3.03;;;;;;;-0.04;100.00;100786.22;5077621;28;20201;-80
2023/12/12 02:39:53;;;;;;;3.80;3.00;;;;;;;0.01;100.00;100808.81;5039575;28;20523;-77
2023/12/12 02:42:20;;;;;;;3.47;2.70;;;;;;;-0.04;100.00;100801.25;5057866;28;20086;-82
2023/12/12 02:44:45;;;;;;;3.78;2.60;;;;;;;-0.25;100.00;100767.72;5056597;28;20036;-75
2023/12/12 02:47:10;;;;;;;3.38;2.72;;;;;;;-0.22;100.00;100786.97;5056122;28;20060;-74
2023/12/12 02:49:38;;;;;;;4.10;2.78;;;;;;;-0.20;100.00;100793.78;5038997;28;20033;-82
2023/12/12 02:52:04;;;;;;;3.85;2.58;;;;;;;-0.03;100.00;100814.34;5057537;28;20021;-81
2023/12/12 02:54:29;;;;;;;3.90;2.75;;;;;;;-0.05;100.00;100818.94;5055354;28;20044;-78
2023/12/12 02:56:55;;;;;;;2.95;2.47;;;;;;;-0.06;100.00;100821.72;5056483;28;20048;-79
2023/12/12 02:59:20;;;;;;;3.95;2.88;;;;;;;-0.27;100.00;100798.75;5056617;28;20195;-82
2023/12/12 03:01:49;;;;;;;2.85;2.25;;;;;;;-0.08;100.00;100824.47;5039760;28;20040;-79
2023/12/12 03:04:14;;;;;;;4.15;2.60;;;;;;;-0.08;100.00;100827.13;5056103;28;20053;-77
2023/12/12 03:06:41;;;;;;;3.97;2.72;;;;;;;-0.11;100.00;100819.44;5057096;28;20032;-78
2023/12/12 03:09:06;;;;;;;3.30;2.30;;;;;;;-0.08;100.00;100826.28;5039305;28;20037;-83
2023/12/12 03:11:34;;;;;;;2.88;2.47;;;;;;;-0.07;100.00;100826.16;5022184;28;20110;-77
2023/12/12 03:13:59;;;;;;;3.08;2.22;;;;;;;-0.09;100.00;100825.47;5055815;28;20115;-80
2023/12/12 03:16:25;;;;;;;3.53;2.60;;;;;;;-0.29;100.00;100811.28;5056816;28;20079;-78
2023/12/12 03:18:50;;;;;;;3.42;2.60;;;;;;;-0.16;100.00;100829.59;5038813;28;20035;-81
2023/12/12 03:21:15;;;;;;;3.40;2.50;;;;;;;-0.15;100.00;100825.97;5056976;28;20032;-76
2023/12/12 03:23:41;;;;;;;2.65;2.20;;;;;;;-0.15;100.00;100828.63;5038568;28;20048;-78
2023/12/12 03:26:11;;;;;;;2.50;1.85;;;;;;;-0.17;100.00;100830.53;5038604;28;20509;-80
2023/12/12 03:28:37;;;;;;;2.40;2.10;;;;;;;-0.19;100.00;100829.84;5056796;28;20044;-80
2023/12/12 03:31:06;;;;;;;3.15;2.05;;;;;;;-0.18;100.00;100831.50;5056708;28;20052;-77
2023/12/12 03:33:32;;;;;;;2.58;2.28;;;;;;;-0.32;100.00;100810.69;5056662;28;20047;-75
2023/12/12 03:35:57;;;;;;;2.63;2.20;;;;;;;-0.18;100.00;100833.31;5055009;28;20060;-78
2023/12/12 03:38:22;;;;;;;3.42;2.38;;;;;;;-0.17;100.00;100835.81;5055079;28;20033;-83
2023/12/12 03:40:48;;;;;;;3.03;2.35;;;;;;;-0.20;100.00;100832.59;5054355;28;20048;-80
2023/12/12 03:43:14;;;;;;;3.40;2.40;;;;;;;-0.19;100.00;100829.84;5055229;28;20061;-77
2023/12/12 03:45:41;;;;;;;2.33;2.03;;;;;;;-0.20;100.00;100844.00;5054672;28;20032;-77
2023/12/12 03:48:07;;;;;;;3.33;2.67;;;;;;;-0.34;100.00;100818.72;5038866;28;20059;-80
2023/12/12 03:50:32;;;;;;;2.92;2.20;;;;;;;-0.22;100.00;100843.31;5056172;28;20483;-83
2023/12/12 03:52:57;;;;;;;4.05;2.58;;;;;;;-0.21;100.00;100842.34;5054819;28;20029;-79
2023/12/12 03:55:23;;;;;;;2.28;1.88;;;;;;;-0.23;100.00;100836.38;5056309;28;20025;-77
2023/12/12 03:57:48;;;;;;;3.03;2.35;;;;;;;-0.23;100.00;100841.66;5055190;28;20025;-77
2023/12/12 04:00:14;;;;;;;3.05;2.00;;;;;;;-0.34;100.00;100824.03;5054972;28;20416;-80
2023/12/12 04:02:40;;;;;;;2.95;2.35;;;;;;;-0.24;100.00;100853.19;5037984;28;20036;-82
2023/12/12 04:05:09;;;;;;;3.17;2.28;;;;;;;-0.22;100.00;100845.97;5055563;28;20056;-76
2023/12/12 04:07:36;;;;;;;2.60;2.00;;;;;;;-0.29;100.00;100842.16;5059799;28;20025;-76
2023/12/12 04:10:03;;;;;;;2.67;2.10;;;;;;;-0.35;100.00;100840.03;5058640;28;20037;-82
2023/12/12 04:12:29;;;;;;;2.47;1.95;;;;;;;-0.32;100.00;100842.41;5060498;28;20033;-74
2023/12/12 04:14:54;;;;;;;3.03;1.95;;;;;;;-0.30;100.00;100838.69;5058525;28;20048;-79
2023/12/12 04:17:20;;;;;;;2.30;1.60;;;;;;;-0.29;100.00;100845.66;5041764;28;20029;-81
2023/12/12 04:19:45;;;;;;;3.10;1.70;;;;;;;-0.28;100.00;100851.75;5058234;28;20089;-75
2023/12/12 04:22:10;;;;;;;2.20;1.73;;;;;;;-0.34;100.00;100855.75;5057932;28;20258;-78
2023/12/12 04:24:36;;;;;;;2.33;1.70;;;;;;;-0.35;100.00;100861.19;5058236;28;20115;-82
2023/12/12 04:27:01;;;;;;;4.53;2.13;;;;;;;-0.36;100.00;100862.16;5058905;28;20044;-75
2023/12/12 04:29:27;;;;;;;2.42;1.83;;;;;;;-0.39;100.00;100859.75;5025080;28;20028;-80
2023/12/12 04:31:52;;;;;;;2.63;2.03;;;;;;;-0.44;100.00;100852.19;5058951;28;20545;-77
2023/12/12 04:34:18;;;;;;;2.03;1.60;;;;;;;-0.46;100.00;100851.50;5058278;28;20024;-79
2023/12/12 04:36:44;;;;;;;3.05;1.95;;;;;;;-0.49;100.00;100854.38;5059736;28;20032;-75
2023/12/12 04:39:16;;;;;;;2.60;2.17;;;;;;;-0.60;100.00;100841.19;5041474;28;20056;-75
2023/12/12 04:41:41;;;;;;;2.85;2.10;;;;;;;-0.56;100.00;100847.94;5058073;28;20032;-77
2023/12/12 04:44:08;;;;;;;3.35;2.10;;;;;;;-0.75;100.00;100825.66;5057854;28;20029;-73
2023/12/12 04:46:33;;;;;;;2.55;2.10;;;;;;;-0.65;100.00;100852.16;5059157;28;20063;-77
2023/12/12 04:49:00;;;;;;;2.63;2.00;;;;;;;-0.67;100.00;100846.16;5058075;28;20021;-81
2023/12/12 04:51:27;;;;;;;3.00;2.22;;;;;;;-0.76;100.00;100844.28;5058066;28;20106;-75
2023/12/12 04:53:52;;;;;;;3.00;2.25;;;;;;;-0.76;100.00;100857.50;5057440;28;20036;-77
2023/12/12 04:56:18;;;;;;;3.60;2.22;;;;;;;-0.95;100.00;100823.78;5041456;28;20021;-76
2023/12/12 04:58:43;;;;;;;3.05;2.08;;;;;;;-0.80;100.00;100853.41;5057529;28;20032;-74
2023/12/12 05:01:08;;;;;;;3.70;2.33;;;;;;;-0.82;100.00;100858.00;5059156;28;20037;-73
2023/12/12 05:03:34;;;;;;;3.65;2.35;;;;;;;-0.84;100.00;100865.19;5057208;28;20028;-74
2023/12/12 05:06:00;;;;;;;2.70;2.28;;;;;;;-1.03;100.00;100829.69;5059332;28;20033;-78
2023/12/12 05:08:25;;;;;;;3.55;2.40;;;;;;;-0.96;100.00;100859.94;5058262;28;20029;-82
2023/12/12 05:10:51;;;;;;;2.90;2.30;;;;;;;-0.95;100.00;100873.97;5058062;28;20105;-81
2023/12/12 05:13:17;;;;;;;3.58;2.72;;;;;;;-0.96;100.00;100865.22;5057299;28;20064;-76
2023/12/12 05:15:43;;;;;;;3.72;2.72;;;;;;;-0.98;100.00;100880.34;5057347;28;20104;-77
2023/12/12 05:18:09;;;;;;;3.65;2.67;;;;;;;-1.02;100.00;100870.16;5053985;28;20491;-75
2023/12/12 05:20:34;;;;;;;4.10;3.10;;;;;;;-1.01;100.00;100871.81;5022786;28;20044;-78
2023/12/12 05:22:59;;;;;;;3.85;2.83;;;;;;;-1.03;100.00;100876.38;5056209;28;20484;-74
2023/12/12 05:25:25;;;;;;;4.30;2.53;;;;;;;-1.15;100.00;100867.66;5040360;28;20036;-78
2023/12/12 05:27:50;;;;;;;4.50;2.55;;;;;;;-1.15;100.00;100882.66;5058876;28;20515;-81
2023/12/12 05:30:23;;;;;;;3.58;2.67;;;;;;;-1.11;100.00;100882.28;5057615;28;20113;-79
2023/12/12 05:32:49;;;;;;;4.97;3.33;;;;;;;-1.13;100.00;100886.00;5060287;28;20075;-77
2023/12/12 05:35:15;;;;;;;4.18;3.10;;;;;;;-1.14;100.00;100889.59;5059338;28;20033;-76
2023/12/12 05:37:49;;;;;;;3.92;3.25;;;;;;;-1.14;100.00;100894.88;5059105;28;20029;-74
2023/12/12 05:40:15;;;;;;;4.05;2.92;;;;;;;-1.14;100.00;100893.09;5072834;28;20075;-77
2023/12/12 05:42:43;;;;;;;4.28;3.03;;;;;;;-1.20;100.00;100872.44;5061518;28;20040;-76
2023/12/12 05:45:09;;;;;;;5.35;3.40;;;;;;;-1.16;100.00;100886.25;5046544;28;20036;-75
2023/12/12 05:47:34;;;;;;;4.80;3.50;;;;;;;-1.18;100.00;100883.72;5080110;28;20027;-75
2023/12/12 05:50:00;;;;;;;5.40;3.40;;;;;;;-1.19;100.00;100887.34;5063280;28;20502;-81
2023/12/12 05:52:26;;;;;;;4.97;3.28;;;;;;;-1.22;100.00;100888.41;5060497;28;20455;-73
2023/12/12 05:54:52;;;;;;;4.75;3.40;;;;;;;-1.23;100.00;100893.81;5042091;28;20036;-79
2023/12/12 05:57:18;;;;;;;4.15;3.03;;;;;;;-1.24;100.00;100892.13;5079477;28;20084;-81
2023/12/12 05:59:43;;;;;;;4.68;3.55;;;;;;;-1.26;100.00;100902.81;5062521;28;20034;-82
2023/12/12 06:02:09;;;;;;;4.88;3.70;;;;;;;-1.29;100.00;100896.91;5046433;28;20123;-74
2023/12/12 06:04:38;;;;;;;4.45;3.30;;;;;;;-1.33;100.00;100898.13;5028382;28;20571;-77
2023/12/12 06:07:05;;;;;;;5.18;3.22;;;;;;;-1.39;100.00;100888.03;5080531;28;20551;-77
2023/12/12 06:09:44;;;;;;;5.68;3.85;;;;;;;-1.30;100.00;100908.44;5037601;28;20024;-71
2023/12/12 06:12:11;;;;;;;5.55;3.50;;;;;;;-1.30;100.00;100911.91;5075885;28;20016;-75
2023/12/12 06:14:36;;;;;;;4.35;3.05;;;;;;;-1.28;100.00;100919.75;5058808;28;20466;-75
2023/12/12 06:17:03;;;;;;;4.63;3.50;;;;;;;-1.24;100.00;100929.09;5077565;28;20139;-78
2023/12/12 06:19:29;;;;;;;3.95;3.15;;;;;;;-1.43;100.00;100884.81;5077595;28;20043;-73
2023/12/12 06:21:54;;;;;;;6.10;3.38;;;;;;;-1.19;100.00;100924.31;5077615;28;20032;-79
2023/12/12 06:24:20;;;;;;;4.60;3.17;;;;;;;-1.16;100.00;100925.84;5078932;28;20113;-80
2023/12/12 06:26:46;;;;;;;3.88;2.78;;;;;;;-1.16;100.00;100918.75;5078673;28;20341;-80
2023/12/12 06:29:13;;;;;;;4.63;3.25;;;;;;;-1.14;100.00;100926.56;5078668;28;20078;-77
2023/12/12 06:31:39;;;;;;;4.18;3.13;;;;;;;-1.14;100.00;100932.69;5080283;28;20024;-77
2023/12/12 06:34:05;;;;;;;4.35;3.08;;;;;;;-1.13;100.00;100930.88;5061947;28;20021;-80
2023/12/12 06:36:30;;;;;;;4.55;3.05;;;;;;;-1.13;100.00;100929.06;5061898;28;20033;-76
2023/12/12 06:38:56;;;;;;;4.50;3.30;;;;;;;-1.10;100.00;100933.28;5061493;28;20089;-73
2023/12/12 06:41:21;;;;;;;4.07;3.00;;;;;;;-1.17;100.00;100925.00;5062086;28;20037;-77
2023/12/12 06:43:47;;;;;;;4.13;3.20;;;;;;;-1.08;100.00;100936.66;5061947;28;20436;-78
2023/12/12 06:46:20;;;;;;;5.25;3.28;;;;;;;-1.13;100.00;100933.53;5079622;28;20020;-77
2023/12/12 06:48:47;;;;;;;3.95;3.15;;;;;;;-1.02;100.00;100944.94;5078244;28;20040;-79
2023/12/12 06:51:12;;;;;;;4.70;3.45;;;;;;;-1.01;100.00;100948.41;5062357;28;20094;-80
2023/12/12 06:53:38;;;;;;;4.47;3.30;;;;;;;-1.04;100.00;100944.22;5079620;28;20028;-77
2023/12/12 06:56:03;;;;;;;4.65;3.05;;;;;;;-1.05;100.00;100931.97;5079143;28;20054;-80
2023/12/12 06:58:29;;;;;;;4.00;3.10;;;;;;;-0.94;100.00;100944.31;5079430;28;20052;-78
2023/12/12 07:00:55;;;;;;;4.22;3.17;;;;;;;-0.91;100.00;100951.16;5061668;28;20033;-77
2023/12/12 07:03:21;;;;;;;5.35;3.22;;;;;;;-1.05;100.00;100924.06;5061559;28;20031;-77
2023/12/12 07:05:51;;;;;;;4.30;3.40;;;;;;;-0.86;100.00;100947.22;5062138;28;20028;-76
2023/12/12 07:08:18;;;;;;;4.63;3.67;;;;;;;-0.83;100.00;100956.69;5060431;28;20446;-75
2023/12/12 07:10:45;;;;;;;4.88;4.18;;;;;;;-0.83;100.00;100954.03;5078386;28;20371;-75
2023/12/12 07:13:10;;;;;;;5.20;3.80;;;;;;;-0.84;100.00;100952.38;5028314;28;20097;-79
2023/12/12 07:15:36;;;;;;;6.28;4.20;;;;;;;-0.83;100.00;100954.03;5060654;28;20123;-78
2023/12/12 07:18:01;;;;;;;5.00;3.63;;;;;;;-0.81;100.00;100957.41;5043815;28;20125;-73
2023/12/12 07:20:27;;;;;;;5.97;4.20;;;;;;;-0.83;100.00;100952.25;5059920;28;20117;-74
2023/12/12 07:22:52;;;;;;;6.38;4.78;;;;;;;-0.93;100.00;100932.78;5027161;28;20027;-77
2023/12/12 07:25:20;;;;;;;5.70;4.40;;;;;;;-0.77;100.00;100956.19;5026924;28;20056;-73
2023/12/12 07:27:45;;;;;;;6.85;4.80;;;;;;;-0.82;100.00;100953.09;5043205;28;20457;-73
2023/12/12 07:30:12;;;;;;;5.93;4.68;;;;;;;-0.81;100.00;100939.75;5078487;28;20112;-72
2023/12/12 07:32:38;;;;;;;5.90;4.50;;;;;;;-1.14;100.00;100884.31;5059668;28;20028;-70
2023/12/12 07:35:04;;;;;;;7.30;4.88;;;;;;;-0.75;100.00;100960.41;5077141;28;20390;-70
2023/12/12 07:37:30;;;;;;;8.43;5.25;;;;;;;-0.85;100.00;100938.31;5058717;28;20036;-70
2023/12/12 07:39:56;;;;;;;7.82;5.45;;;;;;;-0.66;100.00;100973.81;5055219;28;20053;-69
2023/12/12 07:42:21;;;;;;;8.20;5.18;;;;;;;-0.64;100.00;100970.09;5055531;28;20033;-69
2023/12/12 07:44:47;;;;;;;9.68;5.90;;;;;;;-1.08;100.00;100895.25;5056053;28;20025;-70
2023/12/12 07:47:12;;;;;;;8.18;5.90;;;;;;;-0.85;100.00;100934.84;5058725;28;20037;-72
2023/12/12 07:49:37;;;;;;;8.95;6.55;;;;;;;-1.00;100.00;100910.47;5056497;28;20063;-77
2023/12/12 07:52:03;;;;;;;11.55;6.38;;;;;;;-0.61;100.00;100976.94;5057852;28;20064;-78
2023/12/12 07:54:29;;;;;;;8.43;5.97;;;;;;;-0.58;100.00;100977.53;5058265;28;20025;-72
2023/12/12 07:56:54;;;;;;;9.85;6.82;;;;;;;-0.62;100.00;100973.47;5040457;28;20032;-80
2023/12/12 07:59:20;;;;;;;9.80;6.70;;;;;;;-0.59;100.00;100981.16;5057447;28;20037;-78
2023/12/12 08:01:45;;;;;;;10.27;6.75;;;;;;;-0.71;100.00;100951.25;5056667;28;20067;-72
2023/12/12 08:04:11;;;;;;;11.77;7.20;;;;;;;-0.58;100.00;100977.53;5058288;28;20433;-74
2023/12/12 08:06:36;;;;;;;11.25;6.93;;;;;;;-0.59;100.00;100981.16;5057033;28;20029;-80
2023/12/12 08:09:03;;;;;;;9.02;7.30;;;;;;;-0.55;100.00;100974.66;5056701;28;20495;-80
2023/12/12 08:11:29;;;;;;;10.43;7.15;;;;;;;-0.70;100.00;100944.16;5040164;28;20032;-74
2023/12/12 08:13:54;;;;;;;10.85;7.55;;;;;;;-0.54;100.00;100964.94;5056547;28;20033;-72
2023/12/12 08:16:22;;;;;;;11.40;7.97;;;;;;;-0.53;100.00;100961.31;5056971;28;20082;-75
2023/12/12 08:18:47;;;;;;;11.18;7.90;;;;;;;-0.52;100.00;100966.50;5073051;28;20048;-76
2023/12/12 08:21:12;;;;;;;12.52;8.52;;;;;;;-0.49;100.00;100968.88;5057603;28;20539;-72
2023/12/12 08:23:41;;;;;;;10.88;8.05;;;;;;;-0.49;100.00;100968.06;5057956;28;20029;-79
2023/12/12 08:26:07;;;;;;;11.43;8.13;;;;;;;-0.61;100.00;100954.00;5056157;28;20040;-72
2023/12/12 08:28:33;;;;;;;11.25;8.05;;;;;;;-0.53;100.00;100964.81;5056844;28;20044;-74
2023/12/12 08:30:58;;;;;;;13.30;8.80;;;;;;;-0.49;100.00;100975.97;5057242;28;20041;-76
2023/12/12 08:33:23;;;;;;;14.20;8.88;;;;;;;-0.48;100.00;100975.84;5039504;28;20040;-73
2023/12/12 08:35:49;;;;;;;11.52;7.97;;;;;;;-0.45;100.00;100976.56;5055860;28;20503;-78
2023/12/12 08:38:14;;;;;;;12.45;8.25;;;;;;;-0.50;100.00;100983.06;5056141;28;20036;-75
2023/12/12 08:40:40;;;;;;;12.55;8.15;;;;;;;-0.55;100.00;100972.03;5056028;28;20144;-74
2023/12/12 08:43:05;;;;;;;12.48;8.32;;;;;;;-0.54;100.00;100978.13;5039448;28;20029;-75
2023/12/12 08:45:30;;;;;;;11.98;8.38;;;;;;;-0.48;100.00;100982.94;5056406;28;20488;-74
2023/12/12 08:47:56;;;;;;;12.43;8.82;;;;;;;-0.46;100.00;100983.66;5056479;28;20029;-73
2023/12/12 08:50:21;;;;;;;12.00;8.65;;;;;;;-0.47;100.00;100990.72;5057608;28;20063;-75
2023/12/12 08:52:47;;;;;;;12.80;8.93;;;;;;;-0.47;100.00;100987.25;5040507;28;20047;-75
2023/12/12 08:55:13;;;;;;;12.95;9.00;;;;;;;-0.48;100.00;100983.78;5061047;28;20118;-74
2023/12/12 08:57:39;;;;;;;12.35;8.77;;;;;;;-0.46;100.00;100981.03;5059128;28;20029;-76
2023/12/12 09:00:10;;;;;;;14.13;8.80;;;;;;;-0.48;100.00;100986.41;5061354;28;20031;-75
2023/12/12 09:02:37;;;;;;;12.00;8.30;;;;;;;-0.42;100.00;100984.25;5059575;28;20029;-73
2023/12/12 09:05:04;;;;;;;12.45;8.60;;;;;;;-0.49;100.00;100982.09;5059375;28;20025;-75
2023/12/12 09:07:30;;;;;;;14.02;9.02;;;;;;;-0.48;100.00;100993.50;5043117;28;20063;-74
2023/12/12 09:09:55;;;;;;;15.48;9.68;;;;;;;-0.49;100.00;100995.31;5060780;28;20526;-78
2023/12/12 09:12:21;;;;;;;14.07;9.30;;;;;;;-0.50;100.00;100987.50;5059698;28;20107;-72
2023/12/12 09:14:46;;;;;;;15.20;8.85;;;;;;;-0.49;100.00;101000.59;5058812;28;20025;-72
2023/12/12 09:17:12;;;;;;;13.27;8.80;;;;;;;-0.45;100.00;100997.72;5058907;28;20029;-74
2023/12/12 09:19:38;;;;;;;14.57;9.02;;;;;;;-0.50;100.00;100995.44;5041554;28;20045;-74
2023/12/12 09:22:04;;;;;;;13.48;8.68;;;;;;;-0.73;100.00;100968.19;5058528;28;20128;-76
2023/12/12 09:24:33;;;;;;;13.95;9.15;;;;;;;-0.63;100.00;100982.38;5058482;28;20448;-79
2023/12/12 09:26:58;;;;;;;13.07;9.55;;;;;;;-0.59;100.00;100986.44;5075231;28;20029;-74
2023/12/12 09:29:25;;;;;;;13.88;8.60;;;;;;;-0.52;100.00;101000.84;5057811;28;20035;-78
2023/12/12 09:31:50;;;;;;;13.18;9.18;;;;;;;-0.50;100.00;101004.22;5058432;28;20496;-72
2023/12/12 09:34:16;;;;;;;14.82;8.75;;;;;;;-0.57;100.00;100989.78;5057881;28;20044;-76
2023/12/12 09:36:41;;;;;;;12.93;7.95;;;;;;;-0.45;100.00;101001.19;5059498;28;20025;-75
2023/12/12 09:39:07;;;;;;;13.50;8.18;;;;;;;-0.48;100.00;101007.56;5043759;28;20059;-77
2023/12/12 09:41:33;;;;;;;13.75;9.50;;;;;;;-0.43;100.00;101006.34;5045873;28;20036;-77
2023/12/12 09:44:00;;;;;;;14.73;9.00;;;;;;;-0.44;100.00;101004.69;5080407;28;20056;-78
2023/12/12 09:46:26;;;;;;;14.00;8.52;;;;;;;-0.41;100.00;101004.44;5061649;28;20029;-75
2023/12/12 09:48:53;;;;;;;13.13;9.20;;;;;;;-0.42;100.00;101000.94;5081052;28;20047;-76
2023/12/12 09:51:19;;;;;;;13.38;9.02;;;;;;;-0.41;100.00;101015.00;5080187;28;20454;-75
2023/12/12 09:53:49;;;;;;;12.90;8.98;;;;;;;-0.61;100.00;100983.06;5045927;28;20059;-78
2023/12/12 09:56:16;;;;;;;14.35;8.57;;;;;;;-0.44;100.00;101013.44;5062713;28;20048;-76
2023/12/12 09:58:47;;;;;;;14.15;8.75;;;;;;;-0.41;100.00;101007.91;5045790;28;20028;-76
2023/12/12 10:01:14;;;;;;;17.80;9.77;;;;;;;-0.41;100.00;101009.72;5056863;28;20064;-76
2023/12/12 10:03:40;;;;;;;12.02;9.00;;;;;;;-0.35;100.00;101006.59;5061941;28;20020;-75
2023/12/12 10:06:08;;;;;;;13.20;9.18;;;;;;;-0.56;100.00;100991.50;5080002;28;20030;-77
2023/12/12 10:08:35;;;;;;;14.38;8.75;;;;;;;-0.35;100.00;101011.88;5061545;28;20179;-75
2023/12/12 10:11:02;;;;;;;12.85;8.82;;;;;;;-0.35;100.00;101009.22;5061659;28;20066;-75
2023/12/12 10:13:28;;;;;;;12.82;8.30;;;;;;;-0.32;100.00;101009.00;5079514;28;20024;-76
2023/12/12 10:15:53;;;;;;;13.63;8.80;;;;;;;-0.44;100.00;100983.53;5043894;28;20174;-71
2023/12/12 10:18:21;;;;;;;15.05;8.57;;;;;;;-0.29;100.00;101008.75;5043384;28;20040;-74
2023/12/12 10:20:47;;;;;;;13.35;8.98;;;;;;;-0.49;100.00;100976.81;5060615;28;20063;-76
2023/12/12 10:23:13;;;;;;;14.07;8.52;;;;;;;-0.31;100.00;101013.31;5059982;28;20044;-76
2023/12/12 10:25:49;;;;;;;13.38;8.88;;;;;;;-0.27;100.00;101006.78;5060940;28;20080;-73
2023/12/12 10:28:15;;;;;;;14.25;8.90;;;;;;;-0.34;100.00;101016.19;5078604;28;20096;-76
2023/12/12 10:30:42;;;;;;;14.10;8.85;;;;;;;-0.31;100.00;101013.31;5043546;28;20454;-75
2023/12/12 10:33:13;;;;;;;13.77;8.30;;;;;;;-0.45;100.00;100984.50;5059675;28;20119;-70
2023/12/12 10:35:44;;;;;;;13.55;8.70;;;;;;;-0.32;100.00;101011.63;5038815;28;20063;-75
2023/12/12 10:38:10;;;;;;;12.27;8.07;;;;;;;-0.42;100.00;101003.59;5077964;28;20048;-72
2023/12/12 10:40:35;;;;;;;12.98;8.63;;;;;;;-0.34;100.00;101006.44;5056419;28;20191;-72
2023/12/12 10:43:01;;;;;;;13.30;8.52;;;;;;;-0.35;100.00;101003.94;5040597;28;20549;-72
2023/12/12 10:45:28;;;;;;;13.18;8.57;;;;;;;-0.32;100.00;101001.88;5056827;28;20475;-71
2023/12/12 10:47:59;;;;;;;11.93;8.15;;;;;;;-0.25;100.00;101002.22;5056799;28;20112;-74
2023/12/12 10:50:26;;;;;;;11.45;7.65;;;;;;;-0.31;100.00;101010.66;5058256;28;20028;-75
2023/12/12 10:52:53;;;;;;;13.15;8.18;;;;;;;-0.33;100.00;100999.34;5058337;28;20032;-77
2023/12/12 10:55:20;;;;;;;13.23;8.75;;;;;;;-0.37;100.00;100988.19;5059104;28;20024;-74
2023/12/12 10:57:47;;;;;;;13.07;8.30;;;;;;;-0.55;100.00;100968.53;5057746;28;20032;-76
2023/12/12 11:00:16;;;;;;;11.60;8.05;;;;;;;-0.48;100.00;100986.41;5056471;28;20325;-71
2023/12/12 11:02:44;;;;;;;12.00;7.57;;;;;;;-0.51;100.00;100970.81;5055844;28;20029;-80
2023/12/12 11:05:11;;;;;;;11.65;7.93;;;;;;;-0.44;100.00;100994.94;5056929;28;20051;-73
2023/12/12 11:07:38;;;;;;;12.77;8.38;;;;;;;-0.41;100.00;100993.84;5060495;28;20050;-73
2023/12/12 11:10:13;;;;;;;14.13;8.38;;;;;;;-0.60;100.00;100953.03;5062170;28;20021;-74
2023/12/12 11:12:51;;;;;;;11.23;7.72;;;;;;;-0.78;100.00;100918.38;5060894;28;20025;-75